createdAt,value
2023-02-15T00:00:13.291Z,49.05
2023-02-15T00:03:01.075Z,49.83
2023-02-15T00:05:31.407Z,51.15
2023-02-15T00:07:59.546Z,49.42
2023-02-15T00:10:27.560Z,55.28
2023-02-15T00:12:55.111Z,59.53
2023-02-15T00:15:24.077Z,51.63
2023-02-15T00:17:51.700Z,51.17
2023-02-15T00:20:20.099Z,41.53
2023-02-15T00:22:47.577Z,40.80
2023-02-15T00:25:15.600Z,42.85
2023-02-15T00:27:43.101Z,46.95
2023-02-15T00:30:11.670Z,47.75
2023-02-15T00:32:39.214Z,46.70
2023-02-15T00:35:07.985Z,41.05
2023-02-15T00:37:36.372Z,50.55
2023-02-15T00:40:05.860Z,55.42
2023-02-15T00:42:33.414Z,50.80
2023-02-15T00:45:01.831Z,44.22
2023-02-15T00:47:30.264Z,42.20
2023-02-15T00:49:58.072Z,46.08
2023-02-15T00:52:25.608Z,47.00
2023-02-15T00:54:53.373Z,47.05
2023-02-15T00:57:21.026Z,47.95
2023-02-15T00:59:48.859Z,48.65
2023-02-15T01:02:16.485Z,47.95
2023-02-15T01:04:44.594Z,46.67
2023-02-15T01:07:12.113Z,47.03
2023-02-15T01:09:40.008Z,43.20
2023-02-15T01:12:10.131Z,51.72
2023-02-15T01:14:39.099Z,51.33
2023-02-15T01:17:06.741Z,43.42
2023-02-15T01:19:36.874Z,47.95
2023-02-15T01:22:04.641Z,53.97
2023-02-15T01:24:36.564Z,50.60
2023-02-15T01:27:04.222Z,49.88
2023-02-15T01:29:32.189Z,52.13
2023-02-15T01:31:59.920Z,48.85
2023-02-15T01:34:27.770Z,52.05
2023-02-15T01:36:55.326Z,48.70
2023-02-15T01:39:23.447Z,51.88
2023-02-15T01:41:52.659Z,45.58
2023-02-15T01:44:58.860Z,50.47
2023-02-15T01:47:38.473Z,49.50
2023-02-15T01:50:17.301Z,44.22
2023-02-15T01:52:56.871Z,44.08
2023-02-15T01:55:31.451Z,40.25
2023-02-15T01:57:59.779Z,46.72
2023-02-15T02:00:27.846Z,45.73
2023-02-15T02:02:58.113Z,51.72
2023-02-15T02:05:27.262Z,48.80
2023-02-15T02:07:59.611Z,43.72
2023-02-15T02:10:28.154Z,43.70
2023-02-15T02:13:03.991Z,48.58
2023-02-15T02:16:07.569Z,47.67
2023-02-15T02:19:11.491Z,50.00
2023-02-15T02:22:23.654Z,48.60
2023-02-15T02:28:17.161Z,42.28
2023-02-15T02:31:19.558Z,43.78
2023-02-15T02:34:01.814Z,45.95
2023-02-15T02:36:59.294Z,44.85
2023-02-15T02:39:48.310Z,44.28
2023-02-15T02:42:27.217Z,42.63
2023-02-15T02:45:17.737Z,37.00
2023-02-15T02:47:50.104Z,40.45
2023-02-15T02:50:27.849Z,46.53
2023-02-15T02:52:58.287Z,39.47
2023-02-15T02:55:50.232Z,41.67
2023-02-15T02:58:39.238Z,38.40
2023-02-15T03:03:57.094Z,48.60
2023-02-15T03:06:50.066Z,45.72
2023-02-15T03:09:45.773Z,39.40
2023-02-15T03:12:21.551Z,41.90
2023-02-15T03:15:01.059Z,43.88
2023-02-15T03:20:12.086Z,46.50
2023-02-15T03:23:16.621Z,44.38
2023-02-15T03:26:00.720Z,45.70
2023-02-15T03:28:46.775Z,43.30
2023-02-15T03:31:16.299Z,47.45
2023-02-15T03:36:43.643Z,39.38
2023-02-15T03:39:37.468Z,44.60
2023-02-15T03:42:34.516Z,40.03
2023-02-15T03:45:11.002Z,46.60
2023-02-15T03:47:48.331Z,50.53
2023-02-15T03:50:44.615Z,46.95
2023-02-15T03:53:16.468Z,44.38
2023-02-15T03:55:48.997Z,43.40
2023-02-15T03:58:35.146Z,44.85
2023-02-15T04:01:58.988Z,46.63
2023-02-15T04:04:35.771Z,42.55
2023-02-15T04:07:07.806Z,41.70
2023-02-15T04:09:54.100Z,43.40
2023-02-15T04:12:22.267Z,43.55
2023-02-15T04:15:08.459Z,43.25
2023-02-15T04:17:38.858Z,46.38
2023-02-15T04:20:26.124Z,43.35
2023-02-15T04:23:12.237Z,45.50
2023-02-15T04:25:39.833Z,42.03
2023-02-15T04:28:08.813Z,39.92
2023-02-15T04:30:36.541Z,43.10
2023-02-15T04:33:04.451Z,45.20
2023-02-15T04:35:32.870Z,44.03
2023-02-15T04:38:01.111Z,45.40
2023-02-15T04:40:28.706Z,45.58
2023-02-15T04:42:56.602Z,48.08
2023-02-15T04:45:24.125Z,48.65
2023-02-15T04:47:52.044Z,45.75
2023-02-15T04:50:19.955Z,48.00
2023-02-15T04:52:47.929Z,47.17
2023-02-15T04:55:15.649Z,49.10
2023-02-15T04:57:43.525Z,49.05
2023-02-15T05:00:11.836Z,51.67
2023-02-15T05:02:39.819Z,52.25
2023-02-15T05:05:08.309Z,52.08
2023-02-15T05:07:36.211Z,48.75
2023-02-15T05:10:04.023Z,47.88
2023-02-15T05:12:32.210Z,45.45
2023-02-15T05:14:59.725Z,45.88
2023-02-15T05:17:27.535Z,50.22
2023-02-15T05:19:55.080Z,53.78
2023-02-15T05:22:22.961Z,48.38
2023-02-15T05:25:09.148Z,49.63
2023-02-15T05:27:55.856Z,47.90
2023-02-15T05:30:23.490Z,44.03
2023-02-15T05:32:51.424Z,51.55
2023-02-15T05:35:19.491Z,47.40
2023-02-15T05:37:47.480Z,51.47
2023-02-15T05:40:15.069Z,49.72
2023-02-15T05:42:42.965Z,45.42
2023-02-15T05:45:10.966Z,45.50
2023-02-15T05:47:38.745Z,47.15
2023-02-15T05:50:07.350Z,49.22
2023-02-15T05:52:35.925Z,50.03
2023-02-15T05:55:04.587Z,46.72
2023-02-15T05:57:33.054Z,47.05
2023-02-15T06:00:00.703Z,43.17
2023-02-15T06:02:28.555Z,46.83
2023-02-15T06:04:56.173Z,42.47
2023-02-15T06:07:24.016Z,49.53
2023-02-15T06:09:51.580Z,44.13
2023-02-15T06:12:19.868Z,40.00
2023-02-15T06:14:47.390Z,41.03
2023-02-15T06:17:15.598Z,48.22
2023-02-15T06:19:43.893Z,45.55
2023-02-15T06:22:11.961Z,44.53
2023-02-15T06:24:39.498Z,47.35
2023-02-15T06:27:07.422Z,44.88
2023-02-15T06:29:35.249Z,49.22
2023-02-15T06:32:04.506Z,44.50
2023-02-15T06:34:32.123Z,47.75
2023-02-15T06:37:00.242Z,47.97
2023-02-15T06:39:27.683Z,66.28
2023-02-15T06:41:56.477Z,60.80
2023-02-15T06:44:24.254Z,46.80
2023-02-15T06:46:52.191Z,52.83
2023-02-15T06:49:19.710Z,49.42
2023-02-15T06:51:47.492Z,52.45
2023-02-15T06:54:15.042Z,49.58
2023-02-15T06:56:44.599Z,50.40
2023-02-15T06:59:12.426Z,44.13
2023-02-15T07:01:40.642Z,44.00
2023-02-15T07:04:08.363Z,46.80
2023-02-15T07:06:37.017Z,46.67
2023-02-15T07:09:05.325Z,41.85
2023-02-15T07:11:52.039Z,49.20
2023-02-15T07:14:19.742Z,49.67
2023-02-15T07:16:47.576Z,48.13
2023-02-15T07:19:15.145Z,49.05
2023-02-15T07:21:43.231Z,53.67
2023-02-15T07:24:10.748Z,51.00
2023-02-15T07:26:38.708Z,49.60
2023-02-15T07:29:06.458Z,45.95
2023-02-15T07:31:34.276Z,44.85
2023-02-15T07:34:02.216Z,48.90
2023-02-15T07:36:30.090Z,39.83
2023-02-15T07:38:57.711Z,42.58
2023-02-15T07:41:25.687Z,44.00
2023-02-15T07:43:53.284Z,40.38
2023-02-15T07:46:21.986Z,41.47
2023-02-15T07:48:49.921Z,40.13
2023-02-15T07:51:17.868Z,43.80
2023-02-15T07:53:45.604Z,44.05
2023-02-15T07:56:15.699Z,45.35
2023-02-15T07:58:53.159Z,37.08
2023-02-15T08:01:31.012Z,37.60
2023-02-15T08:03:59.465Z,39.20
2023-02-15T08:06:31.254Z,35.95
2023-02-15T08:08:59.158Z,42.92
2023-02-15T08:11:33.938Z,36.80
2023-02-15T08:14:15.003Z,33.03
2023-02-15T08:17:00.508Z,38.72
2023-02-15T08:19:31.008Z,40.72
2023-02-15T08:22:01.218Z,31.90
2023-02-15T08:24:32.359Z,32.65
2023-02-15T08:27:00.520Z,36.08
2023-02-15T08:29:29.978Z,34.85
2023-02-15T08:32:06.204Z,34.95
2023-02-15T08:34:41.579Z,36.65
2023-02-15T08:37:10.444Z,31.38
2023-02-15T08:39:38.134Z,32.65
2023-02-15T08:42:06.118Z,32.80
2023-02-15T08:44:33.577Z,34.90
2023-02-15T08:47:04.832Z,36.72
2023-02-15T08:49:33.304Z,33.55
2023-02-15T08:52:01.703Z,43.45
2023-02-15T08:54:29.292Z,36.92
2023-02-15T08:56:57.284Z,31.83
2023-02-15T08:59:27.849Z,36.58
2023-02-15T09:01:56.584Z,35.75
2023-02-15T09:04:24.480Z,40.65
2023-02-15T09:06:53.281Z,34.67
2023-02-15T09:09:21.408Z,33.95
2023-02-15T09:11:57.856Z,36.67
2023-02-15T09:14:28.104Z,37.35
2023-02-15T09:16:56.733Z,40.40
2023-02-15T09:19:25.218Z,35.72
2023-02-15T09:21:52.935Z,32.03
2023-02-15T09:24:20.993Z,46.30
2023-02-15T09:26:49.741Z,40.35
2023-02-15T09:29:19.383Z,40.67
2023-02-15T09:34:22.005Z,40.85
2023-02-15T09:36:50.819Z,37.03
2023-02-15T09:39:29.043Z,35.97
2023-02-15T09:42:32.680Z,35.35
2023-02-15T09:45:56.902Z,38.03
2023-02-15T09:48:41.285Z,30.33
2023-02-15T09:52:06.639Z,34.22
2023-02-15T09:55:04.009Z,31.52
2023-02-15T09:57:48.283Z,22.98
2023-02-15T10:00:35.564Z,28.35
2023-02-15T10:03:28.046Z,32.17
2023-02-15T10:06:34.828Z,29.05
2023-02-15T10:09:37.913Z,25.40
2023-02-15T10:12:36.949Z,23.83
2023-02-15T10:18:56.685Z,26.65
2023-02-15T10:25:16.711Z,28.95
2023-02-15T10:27:50.659Z,24.27
2023-02-15T10:31:04.362Z,28.13
2023-02-15T10:33:41.575Z,26.73
2023-02-15T10:36:40.264Z,27.15
2023-02-15T10:39:42.666Z,31.50
2023-02-15T10:42:49.212Z,27.60
2023-02-15T10:45:51.019Z,28.42
2023-02-15T10:48:53.343Z,28.88
2023-02-15T10:51:44.963Z,26.75
2023-02-15T10:54:30.630Z,30.48
2023-02-15T10:57:16.612Z,27.45
2023-02-15T11:00:15.104Z,28.45
2023-02-15T11:03:32.246Z,28.45
2023-02-15T11:06:12.808Z,27.15
2023-02-15T11:08:50.994Z,25.15
2023-02-15T11:11:30.615Z,28.30
2023-02-15T11:14:55.149Z,26.13
2023-02-15T11:17:45.236Z,26.50
2023-02-15T11:20:35.468Z,26.73
2023-02-15T11:23:03.715Z,24.60
2023-02-15T11:25:36.570Z,26.13
2023-02-15T11:28:14.554Z,26.13
2023-02-15T11:30:53.166Z,31.42
2023-02-15T11:33:36.207Z,25.75
2023-02-15T11:36:18.845Z,26.33
2023-02-15T11:38:50.364Z,24.23
2023-02-15T11:41:28.417Z,31.40
2023-02-15T11:44:17.631Z,29.73
2023-02-15T11:46:45.698Z,23.77
2023-02-15T11:49:40.220Z,31.30
2023-02-15T11:52:19.588Z,25.02
2023-02-15T11:54:51.544Z,28.08
2023-02-15T11:57:41.481Z,27.50
2023-02-15T12:00:57.158Z,28.00
2023-02-15T12:03:47.574Z,27.92
2023-02-15T12:06:39.762Z,22.73
2023-02-15T12:09:46.739Z,24.30
2023-02-15T12:12:33.421Z,26.90
2023-02-15T12:15:05.489Z,25.45
2023-02-15T12:17:55.969Z,25.00
2023-02-15T12:20:33.117Z,24.15
2023-02-15T12:23:05.504Z,27.08
2023-02-15T12:25:44.751Z,24.95
2023-02-15T12:28:45.431Z,22.38
2023-02-15T12:31:47.646Z,25.10
2023-02-15T12:34:32.187Z,24.38
2023-02-15T12:37:10.417Z,22.33
2023-02-15T12:39:39.446Z,23.83
2023-02-15T12:42:18.462Z,27.02
2023-02-15T12:45:20.392Z,24.27
2023-02-15T12:48:08.544Z,22.95
2023-02-15T12:50:36.360Z,31.83
2023-02-15T12:53:35.594Z,20.25
2023-02-15T12:56:11.370Z,24.20
2023-02-15T12:58:43.130Z,24.88
2023-02-15T13:01:13.762Z,25.02
2023-02-15T13:04:08.290Z,24.88
2023-02-15T13:06:37.931Z,25.58
2023-02-15T13:12:34.719Z,22.55
2023-02-15T13:15:04.227Z,21.40
2023-02-15T13:17:35.264Z,20.00
2023-02-15T13:20:17.610Z,19.48
2023-02-15T13:22:49.061Z,22.33
2023-02-15T13:25:26.287Z,25.50
2023-02-15T13:28:01.582Z,26.80
2023-02-15T13:30:47.451Z,24.73
2023-02-15T13:33:27.378Z,23.52
2023-02-15T13:36:19.032Z,26.08
2023-02-15T13:39:00.421Z,25.73
2023-02-15T13:41:37.646Z,20.35
2023-02-15T13:44:29.967Z,24.42
2023-02-15T13:47:09.793Z,21.70
2023-02-15T13:50:24.937Z,24.50
2023-02-15T13:53:08.374Z,29.60
2023-02-15T13:55:57.000Z,24.08
2023-02-15T13:58:56.896Z,30.00
2023-02-15T14:01:59.585Z,26.48
2023-02-15T14:04:49.217Z,29.15
2023-02-15T14:10:12.054Z,28.05
2023-02-15T14:13:02.886Z,33.53
2023-02-15T14:16:06.932Z,30.88
2023-02-15T14:19:21.770Z,29.48
2023-02-15T14:22:10.335Z,33.80
2023-02-15T14:24:56.273Z,32.70
2023-02-15T14:27:44.458Z,32.25
2023-02-15T14:30:37.601Z,38.60
2023-02-15T14:33:46.736Z,33.58
2023-02-15T14:36:20.528Z,32.42
2023-02-15T14:39:35.049Z,34.38
2023-02-15T14:42:43.932Z,29.27
2023-02-15T14:45:43.907Z,31.65
2023-02-15T14:48:23.206Z,32.83
2023-02-15T14:50:51.132Z,28.52
2023-02-15T14:53:24.204Z,30.05
2023-02-15T14:56:14.747Z,32.50
2023-02-15T14:58:51.212Z,28.27
2023-02-15T15:01:35.162Z,31.05
2023-02-15T15:04:35.634Z,29.35
2023-02-15T15:07:08.674Z,29.08
2023-02-15T15:09:41.658Z,31.23
2023-02-15T15:12:27.109Z,35.50
2023-02-15T15:14:55.897Z,35.63
2023-02-15T15:17:38.795Z,32.38
2023-02-15T15:20:14.722Z,31.20
2023-02-15T15:22:44.695Z,30.95
2023-02-15T15:25:42.132Z,36.85
2023-02-15T15:28:10.171Z,34.92
2023-02-15T15:30:37.592Z,57.97
2023-02-15T15:34:11.819Z,58.05
2023-02-15T15:37:07.548Z,68.95
2023-02-15T15:40:09.140Z,54.53
2023-02-15T15:42:58.501Z,76.65
2023-02-15T15:46:21.946Z,82.72
2023-02-15T15:48:49.984Z,84.40
2023-02-15T15:51:44.968Z,89.18
2023-02-15T15:54:26.139Z,103.18
2023-02-15T15:57:05.015Z,108.28
2023-02-15T15:59:35.373Z,129.65
2023-02-15T16:02:08.837Z,124.40
2023-02-15T16:04:36.775Z,121.38
2023-02-15T16:07:19.755Z,119.05
2023-02-15T16:10:05.733Z,121.15
2023-02-15T16:12:37.267Z,114.35
2023-02-15T16:15:20.547Z,106.03
2023-02-15T16:17:56.049Z,93.07
2023-02-15T16:20:35.420Z,84.63
2023-02-15T16:23:35.818Z,75.28
2023-02-15T16:27:19.728Z,76.65
2023-02-15T16:29:47.557Z,73.35
2023-02-15T16:32:29.293Z,67.97
2023-02-15T16:35:03.670Z,67.65
2023-02-15T16:37:36.512Z,63.75
2023-02-15T16:40:04.980Z,61.30
2023-02-15T16:42:32.470Z,53.25
2023-02-15T16:45:17.556Z,60.05
2023-02-15T16:47:54.186Z,69.85
2023-02-15T16:50:35.592Z,68.07
2023-02-15T16:53:06.472Z,82.82
2023-02-15T16:55:42.120Z,88.25
2023-02-15T16:58:16.857Z,101.30
2023-02-15T17:00:45.235Z,95.82
2023-02-15T17:03:15.501Z,107.68
2023-02-15T17:05:51.171Z,92.90
2023-02-15T17:08:29.553Z,92.35
2023-02-15T17:11:00.755Z,91.72
2023-02-15T17:13:30.022Z,93.68
2023-02-15T17:16:01.088Z,100.20
2023-02-15T17:18:44.889Z,96.53
2023-02-15T17:21:25.318Z,94.13
2023-02-15T17:24:05.134Z,104.13
2023-02-15T17:26:36.992Z,90.85
2023-02-15T17:29:52.964Z,85.90
2023-02-15T17:32:25.784Z,84.25
2023-02-15T17:35:29.203Z,82.28
2023-02-15T17:38:20.356Z,73.95
2023-02-15T17:40:48.427Z,75.63
2023-02-15T17:43:16.194Z,75.38
2023-02-15T17:45:50.447Z,85.95
2023-02-15T17:48:40.636Z,111.85
2023-02-15T17:51:13.769Z,89.32
2023-02-15T17:54:06.827Z,87.10
2023-02-15T17:56:36.137Z,85.30
2023-02-15T18:02:01.135Z,86.05
2023-02-15T18:04:47.846Z,87.07
2023-02-15T18:07:36.046Z,77.30
2023-02-15T18:10:37.098Z,82.87
2023-02-15T18:13:04.851Z,77.68
2023-02-15T18:15:32.993Z,79.72
2023-02-15T18:18:00.719Z,76.13
2023-02-15T18:20:37.030Z,84.53
2023-02-15T18:23:04.750Z,78.00
2023-02-15T18:25:32.651Z,76.22
2023-02-15T18:28:00.221Z,76.88
2023-02-15T18:30:28.313Z,75.28
2023-02-15T18:32:58.492Z,77.15
2023-02-15T18:35:33.520Z,80.18
2023-02-15T18:38:02.199Z,81.43
2023-02-15T18:40:30.778Z,79.43
2023-02-15T18:42:58.374Z,72.70
2023-02-15T18:45:32.911Z,79.03
2023-02-15T18:48:00.729Z,78.05
2023-02-15T18:50:37.774Z,89.30
2023-02-15T18:53:13.641Z,94.07
2023-02-15T18:55:41.625Z,93.20
2023-02-15T18:58:19.837Z,87.55
2023-02-15T19:00:49.966Z,99.50
2023-02-15T19:03:19.003Z,99.45
2023-02-15T19:05:47.727Z,106.72
2023-02-15T19:08:24.740Z,97.75
2023-02-15T19:10:52.883Z,93.65
2023-02-15T19:13:20.440Z,83.40
2023-02-15T19:15:48.265Z,77.22
2023-02-15T19:18:17.023Z,91.65
2023-02-15T19:20:46.886Z,76.07
2023-02-15T19:23:24.846Z,75.22
2023-02-15T19:25:53.880Z,73.18
2023-02-15T19:28:34.287Z,75.47
2023-02-15T19:31:02.202Z,76.30
2023-02-15T19:33:29.902Z,74.82
2023-02-15T19:35:57.943Z,74.57
2023-02-15T19:38:36.623Z,75.65
2023-02-15T19:41:16.896Z,73.35
2023-02-15T19:43:55.666Z,77.28
2023-02-15T19:46:24.355Z,77.22
2023-02-15T19:48:53.545Z,82.93
2023-02-15T19:53:51.782Z,89.60
2023-02-15T19:56:24.512Z,91.75
2023-02-15T19:58:52.295Z,92.35
2023-02-15T20:01:20.241Z,91.15
2023-02-15T20:03:47.943Z,91.38
2023-02-15T20:06:16.835Z,86.07
2023-02-15T20:08:45.546Z,81.05
2023-02-15T20:11:14.461Z,82.93
2023-02-15T20:13:42.192Z,87.63
2023-02-15T20:16:10.175Z,94.35
2023-02-15T20:18:37.794Z,88.97
2023-02-15T20:21:09.407Z,85.55
2023-02-15T20:23:37.629Z,80.00
2023-02-15T20:26:18.539Z,74.00
2023-02-15T20:28:47.343Z,74.10
2023-02-15T20:31:17.578Z,68.95
2023-02-15T20:33:45.852Z,71.00
2023-02-15T20:36:19.247Z,71.60
2023-02-15T20:38:47.221Z,73.43
2023-02-15T20:41:39.142Z,70.20
2023-02-15T20:44:15.685Z,84.38
2023-02-15T20:46:43.785Z,86.15
2023-02-15T20:49:11.769Z,83.10
2023-02-15T20:51:41.705Z,75.80
2023-02-15T20:54:16.318Z,87.95
2023-02-15T20:56:45.990Z,88.30
2023-02-15T20:59:24.350Z,95.30
2023-02-15T21:01:59.075Z,80.63
2023-02-15T21:04:34.383Z,78.60
2023-02-15T21:07:02.570Z,77.18
2023-02-15T21:09:30.305Z,71.97
2023-02-15T21:12:00.103Z,72.65
2023-02-15T21:16:56.213Z,58.13
2023-02-15T21:19:24.810Z,63.15
2023-02-15T21:21:53.778Z,64.38
2023-02-15T21:24:28.531Z,63.70
2023-02-15T21:27:02.989Z,60.50
2023-02-15T21:29:31.614Z,58.38
2023-02-15T21:32:00.518Z,53.22
2023-02-15T21:34:28.123Z,65.00
2023-02-15T21:36:56.212Z,59.20
2023-02-15T21:39:29.929Z,58.53
2023-02-15T21:42:16.923Z,52.50
2023-02-15T21:45:02.755Z,56.03
2023-02-15T21:47:50.645Z,49.55
2023-02-15T21:50:43.182Z,52.97
2023-02-15T21:53:24.548Z,52.83
2023-02-15T21:55:57.378Z,54.78
2023-02-15T21:58:29.154Z,49.75
2023-02-15T22:00:59.322Z,47.67
2023-02-15T22:03:39.787Z,48.15
2023-02-15T22:06:13.625Z,52.28
2023-02-15T22:08:41.664Z,45.83
2023-02-15T22:11:16.261Z,56.05
2023-02-15T22:13:45.587Z,58.35
2023-02-15T22:16:17.742Z,49.20
2023-02-15T22:18:46.430Z,49.97
2023-02-15T22:21:16.651Z,47.83
2023-02-15T22:23:44.653Z,47.10
2023-02-15T22:26:24.139Z,44.08
2023-02-15T22:28:52.297Z,43.55
2023-02-15T22:31:23.150Z,47.60
2023-02-15T22:33:51.835Z,46.15
2023-02-15T22:36:28.804Z,44.33
2023-02-15T22:38:57.837Z,43.25
2023-02-15T22:41:30.234Z,45.83
2023-02-15T22:43:58.888Z,44.95
2023-02-15T22:46:27.133Z,43.75
2023-02-15T22:48:55.252Z,45.80
2023-02-15T22:51:25.053Z,39.03
2023-02-15T22:53:53.887Z,41.58
2023-02-15T22:56:53.198Z,41.67
2023-02-15T22:59:28.929Z,44.55
2023-02-15T23:01:57.679Z,43.00
2023-02-15T23:04:28.659Z,38.08
2023-02-15T23:06:59.507Z,46.42
2023-02-15T23:09:27.428Z,42.30
2023-02-15T23:11:55.059Z,48.30
2023-02-15T23:14:32.734Z,46.45
2023-02-15T23:17:00.443Z,45.80
2023-02-15T23:19:29.224Z,47.80
2023-02-15T23:21:56.991Z,46.73
2023-02-15T23:24:29.882Z,48.60
2023-02-15T23:27:18.072Z,46.65
2023-02-15T23:29:47.655Z,56.50
2023-02-15T23:34:43.913Z,56.00
2023-02-15T23:37:14.723Z,55.75
2023-02-15T23:40:01.620Z,60.45
2023-02-15T23:42:33.282Z,54.50
2023-02-15T23:45:02.595Z,55.70
2023-02-15T23:47:54.076Z,43.63
2023-02-15T23:50:30.421Z,45.05
2023-02-15T23:52:59.667Z,48.50
2023-02-15T23:58:14.480Z,53.20
